sensor_id;sensor_type;location;lat;lon;timestamp;P1;durP1;ratioP1;P2;durP2;ratioP2
47483;SDS011;54076;50.322;18.650;2023-09-07T00:02:28;15.40;;;8.30;;
47483;SDS011;54076;50.322;18.650;2023-09-07T00:07:29;15.60;;;7.70;;
47483;SDS011;54076;50.322;18.650;2023-09-07T00:12:30;18.80;;;8.40;;
47483;SDS011;54076;50.322;18.650;2023-09-07T00:17:31;21.00;;;8.90;;
47483;SDS011;54076;50.322;18.650;2023-09-07T00:22:32;18.50;;;8.30;;
47483;SDS011;54076;50.322;18.650;2023-09-07T00:27:33;16.90;;;8.10;;
47483;SDS011;54076;50.322;18.650;2023-09-07T00:32:38;16.60;;;8.10;;
47483;SDS011;54076;50.322;18.650;2023-09-07T00:37:39;16.90;;;8.00;;
47483;SDS011;54076;50.322;18.650;2023-09-07T00:42:40;19.30;;;8.50;;
47483;SDS011;54076;50.322;18.650;2023-09-07T00:47:42;16.90;;;8.60;;
47483;SDS011;54076;50.322;18.650;2023-09-07T00:52:43;20.50;;;8.80;;
47483;SDS011;54076;50.322;18.650;2023-09-07T00:57:45;18.30;;;8.10;;
47483;SDS011;54076;50.322;18.650;2023-09-07T01:02:46;16.90;;;8.40;;
47483;SDS011;54076;50.322;18.650;2023-09-07T01:07:50;24.60;;;8.80;;
47483;SDS011;54076;50.322;18.650;2023-09-07T01:12:54;20.50;;;8.80;;
47483;SDS011;54076;50.322;18.650;2023-09-07T01:17:55;21.40;;;8.40;;
47483;SDS011;54076;50.322;18.650;2023-09-07T01:22:58;19.60;;;8.50;;
47483;SDS011;54076;50.322;18.650;2023-09-07T01:27:59;22.20;;;8.60;;
47483;SDS011;54076;50.322;18.650;2023-09-07T01:33:00;16.50;;;7.70;;
47483;SDS011;54076;50.322;18.650;2023-09-07T01:38:01;16.20;;;7.40;;
47483;SDS011;54076;50.322;18.650;2023-09-07T01:43:02;16.80;;;7.60;;
47483;SDS011;54076;50.322;18.650;2023-09-07T01:48:09;18.70;;;8.00;;
47483;SDS011;54076;50.322;18.650;2023-09-07T01:53:12;21.80;;;8.10;;
47483;SDS011;54076;50.322;18.650;2023-09-07T01:58:13;17.10;;;7.80;;
47483;SDS011;54076;50.322;18.650;2023-09-07T02:03:14;18.30;;;8.00;;
47483;SDS011;54076;50.322;18.650;2023-09-07T02:08:15;21.70;;;8.30;;
47483;SDS011;54076;50.322;18.650;2023-09-07T02:13:16;19.40;;;8.80;;
47483;SDS011;54076;50.322;18.650;2023-09-07T02:18:17;15.60;;;7.90;;
47483;SDS011;54076;50.322;18.650;2023-09-07T02:23:18;21.20;;;8.20;;
47483;SDS011;54076;50.322;18.650;2023-09-07T02:28:19;19.70;;;8.10;;
47483;SDS011;54076;50.322;18.650;2023-09-07T02:33:20;18.70;;;7.80;;
47483;SDS011;54076;50.322;18.650;2023-09-07T02:38:21;18.80;;;8.10;;
47483;SDS011;54076;50.322;18.650;2023-09-07T02:43:21;18.00;;;8.20;;
47483;SDS011;54076;50.322;18.650;2023-09-07T02:48:23;18.10;;;9.00;;
47483;SDS011;54076;50.322;18.650;2023-09-07T02:53:24;22.20;;;9.20;;
47483;SDS011;54076;50.322;18.650;2023-09-07T02:58:25;24.40;;;8.30;;
47483;SDS011;54076;50.322;18.650;2023-09-07T03:03:26;19.70;;;9.40;;
47483;SDS011;54076;50.322;18.650;2023-09-07T03:08:27;18.30;;;8.20;;
47483;SDS011;54076;50.322;18.650;2023-09-07T03:13:28;23.60;;;9.30;;
47483;SDS011;54076;50.322;18.650;2023-09-07T03:18:29;27.90;;;10.90;;
47483;SDS011;54076;50.322;18.650;2023-09-07T03:23:31;22.00;;;9.20;;
47483;SDS011;54076;50.322;18.650;2023-09-07T03:28:33;22.60;;;8.80;;
47483;SDS011;54076;50.322;18.650;2023-09-07T03:33:34;26.40;;;10.00;;
47483;SDS011;54076;50.322;18.650;2023-09-07T03:38:35;19.30;;;8.80;;
47483;SDS011;54076;50.322;18.650;2023-09-07T03:43:36;18.70;;;8.90;;
47483;SDS011;54076;50.322;18.650;2023-09-07T03:48:37;21.00;;;9.10;;
47483;SDS011;54076;50.322;18.650;2023-09-07T03:53:38;20.70;;;9.30;;
47483;SDS011;54076;50.322;18.650;2023-09-07T03:58:39;21.40;;;9.10;;
47483;SDS011;54076;50.322;18.650;2023-09-07T04:03:40;20.20;;;9.00;;
47483;SDS011;54076;50.322;18.650;2023-09-07T04:08:41;20.90;;;8.80;;
47483;SDS011;54076;50.322;18.650;2023-09-07T04:13:41;20.30;;;9.10;;
47483;SDS011;54076;50.322;18.650;2023-09-07T04:18:42;19.30;;;8.40;;
47483;SDS011;54076;50.322;18.650;2023-09-07T04:23:44;20.40;;;8.90;;
47483;SDS011;54076;50.322;18.650;2023-09-07T04:28:45;19.80;;;8.80;;
47483;SDS011;54076;50.322;18.650;2023-09-07T04:33:46;19.10;;;8.60;;
47483;SDS011;54076;50.322;18.650;2023-09-07T04:38:48;19.20;;;9.20;;
47483;SDS011;54076;50.322;18.650;2023-09-07T04:43:49;22.10;;;9.90;;
47483;SDS011;54076;50.322;18.650;2023-09-07T04:48:50;25.00;;;9.40;;
47483;SDS011;54076;50.322;18.650;2023-09-07T04:53:51;22.60;;;10.20;;
47483;SDS011;54076;50.322;18.650;2023-09-07T04:58:52;21.30;;;9.10;;
47483;SDS011;54076;50.322;18.650;2023-09-07T05:03:53;21.80;;;9.60;;
47483;SDS011;54076;50.322;18.650;2023-09-07T05:08:54;23.60;;;9.60;;
47483;SDS011;54076;50.322;18.650;2023-09-07T05:13:56;21.60;;;9.40;;
47483;SDS011;54076;50.322;18.650;2023-09-07T05:18:56;18.70;;;8.60;;
47483;SDS011;54076;50.322;18.650;2023-09-07T05:23:57;21.30;;;9.50;;
47483;SDS011;54076;50.322;18.650;2023-09-07T05:28:58;22.10;;;9.40;;
47483;SDS011;54076;50.322;18.650;2023-09-07T05:33:59;22.70;;;10.20;;
47483;SDS011;54076;50.322;18.650;2023-09-07T05:39:01;24.00;;;10.40;;
47483;SDS011;54076;50.322;18.650;2023-09-07T05:44:03;21.60;;;9.50;;
47483;SDS011;54076;50.322;18.650;2023-09-07T05:49:04;18.70;;;8.90;;
47483;SDS011;54076;50.322;18.650;2023-09-07T05:54:05;22.60;;;9.00;;
47483;SDS011;54076;50.322;18.650;2023-09-07T05:59:06;22.90;;;8.70;;
47483;SDS011;54076;50.322;18.650;2023-09-07T06:04:07;18.90;;;8.30;;
47483;SDS011;54076;50.322;18.650;2023-09-07T06:09:08;19.90;;;8.70;;
47483;SDS011;54076;50.322;18.650;2023-09-07T06:14:09;20.40;;;8.30;;
47483;SDS011;54076;50.322;18.650;2023-09-07T06:19:10;22.60;;;8.60;;
47483;SDS011;54076;50.322;18.650;2023-09-07T06:24:10;23.90;;;8.20;;
47483;SDS011;54076;50.322;18.650;2023-09-07T06:29:11;21.70;;;8.50;;
47483;SDS011;54076;50.322;18.650;2023-09-07T06:34:12;20.20;;;8.40;;
47483;SDS011;54076;50.322;18.650;2023-09-07T06:39:13;24.00;;;8.50;;
47483;SDS011;54076;50.322;18.650;2023-09-07T06:44:14;22.90;;;9.00;;
47483;SDS011;54076;50.322;18.650;2023-09-07T06:49:15;24.30;;;7.70;;
47483;SDS011;54076;50.322;18.650;2023-09-07T06:54:16;25.30;;;8.60;;
47483;SDS011;54076;50.322;18.650;2023-09-07T06:59:17;16.20;;;6.50;;
47483;SDS011;54076;50.322;18.650;2023-09-07T07:04:18;21.00;;;6.40;;
47483;SDS011;54076;50.322;18.650;2023-09-07T07:09:19;16.60;;;6.80;;
47483;SDS011;54076;50.322;18.650;2023-09-07T07:14:20;14.60;;;5.80;;
47483;SDS011;54076;50.322;18.650;2023-09-07T07:19:20;14.10;;;5.90;;
47483;SDS011;54076;50.322;18.650;2023-09-07T07:24:21;14.20;;;6.20;;
47483;SDS011;54076;50.322;18.650;2023-09-07T07:29:22;18.80;;;10.00;;
47483;SDS011;54076;50.322;18.650;2023-09-07T07:34:23;13.60;;;6.00;;
47483;SDS011;54076;50.322;18.650;2023-09-07T07:39:24;14.10;;;6.40;;
47483;SDS011;54076;50.322;18.650;2023-09-07T07:44:25;13.90;;;5.80;;
47483;SDS011;54076;50.322;18.650;2023-09-07T07:49:26;13.60;;;6.00;;
47483;SDS011;54076;50.322;18.650;2023-09-07T07:54:28;11.50;;;5.70;;
47483;SDS011;54076;50.322;18.650;2023-09-07T07:59:29;16.70;;;5.20;;
47483;SDS011;54076;50.322;18.650;2023-09-07T08:04:30;11.10;;;5.10;;
47483;SDS011;54076;50.322;18.650;2023-09-07T08:09:32;12.80;;;5.30;;
47483;SDS011;54076;50.322;18.650;2023-09-07T08:14:33;11.20;;;5.10;;
47483;SDS011;54076;50.322;18.650;2023-09-07T08:19:35;12.80;;;5.60;;
47483;SDS011;54076;50.322;18.650;2023-09-07T08:24:36;12.80;;;5.10;;
47483;SDS011;54076;50.322;18.650;2023-09-07T08:29:37;10.00;;;4.80;;
47483;SDS011;54076;50.322;18.650;2023-09-07T08:34:38;9.90;;;5.20;;
47483;SDS011;54076;50.322;18.650;2023-09-07T08:39:42;12.60;;;4.50;;
47483;SDS011;54076;50.322;18.650;2023-09-07T08:44:43;11.50;;;4.90;;
47483;SDS011;54076;50.322;18.650;2023-09-07T08:49:47;12.40;;;4.60;;
47483;SDS011;54076;50.322;18.650;2023-09-07T08:54:48;10.20;;;4.70;;
47483;SDS011;54076;50.322;18.650;2023-09-07T08:59:49;8.10;;;4.10;;
47483;SDS011;54076;50.322;18.650;2023-09-07T09:04:50;10.30;;;4.70;;
47483;SDS011;54076;50.322;18.650;2023-09-07T09:10:02;9.70;;;4.90;;
47483;SDS011;54076;50.322;18.650;2023-09-07T09:15:07;12.00;;;4.80;;
47483;SDS011;54076;50.322;18.650;2023-09-07T09:20:25;15.20;;;4.60;;
47483;SDS011;54076;50.322;18.650;2023-09-07T09:25:29;9.70;;;5.00;;
47483;SDS011;54076;50.322;18.650;2023-09-07T09:30:31;11.20;;;4.70;;
47483;SDS011;54076;50.322;18.650;2023-09-07T09:35:32;8.80;;;4.70;;
47483;SDS011;54076;50.322;18.650;2023-09-07T09:40:35;9.10;;;4.80;;
47483;SDS011;54076;50.322;18.650;2023-09-07T09:45:36;9.70;;;4.80;;
47483;SDS011;54076;50.322;18.650;2023-09-07T09:50:38;9.60;;;4.50;;
47483;SDS011;54076;50.322;18.650;2023-09-07T09:55:41;9.00;;;4.90;;
47483;SDS011;54076;50.322;18.650;2023-09-07T10:00:43;11.90;;;4.70;;
47483;SDS011;54076;50.322;18.650;2023-09-07T10:05:45;11.90;;;5.10;;
47483;SDS011;54076;50.322;18.650;2023-09-07T10:10:53;8.50;;;4.50;;
47483;SDS011;54076;50.322;18.650;2023-09-07T10:16:00;8.10;;;4.50;;
47483;SDS011;54076;50.322;18.650;2023-09-07T10:21:08;9.50;;;4.30;;
47483;SDS011;54076;50.322;18.650;2023-09-07T10:26:16;8.60;;;4.10;;
47483;SDS011;54076;50.322;18.650;2023-09-07T10:31:19;9.00;;;4.20;;
47483;SDS011;54076;50.322;18.650;2023-09-07T10:36:26;8.30;;;4.40;;
47483;SDS011;54076;50.322;18.650;2023-09-07T10:41:28;7.60;;;4.10;;
47483;SDS011;54076;50.322;18.650;2023-09-07T10:46:29;7.80;;;3.90;;
47483;SDS011;54076;50.322;18.650;2023-09-07T10:51:30;8.40;;;3.60;;
47483;SDS011;54076;50.322;18.650;2023-09-07T10:56:31;8.30;;;4.10;;
47483;SDS011;54076;50.322;18.650;2023-09-07T11:01:32;9.10;;;3.90;;
47483;SDS011;54076;50.322;18.650;2023-09-07T11:06:33;8.20;;;4.10;;
47483;SDS011;54076;50.322;18.650;2023-09-07T11:11:35;8.40;;;3.90;;
47483;SDS011;54076;50.322;18.650;2023-09-07T11:16:37;9.60;;;4.00;;
47483;SDS011;54076;50.322;18.650;2023-09-07T11:21:37;7.60;;;4.00;;
47483;SDS011;54076;50.322;18.650;2023-09-07T11:26:45;7.80;;;3.80;;
47483;SDS011;54076;50.322;18.650;2023-09-07T11:31:47;8.10;;;3.80;;
47483;SDS011;54076;50.322;18.650;2023-09-07T11:36:48;8.00;;;4.00;;
47483;SDS011;54076;50.322;18.650;2023-09-07T11:41:49;8.90;;;4.00;;
47483;SDS011;54076;50.322;18.650;2023-09-07T11:46:50;8.20;;;3.50;;
47483;SDS011;54076;50.322;18.650;2023-09-07T11:51:51;7.40;;;3.70;;
47483;SDS011;54076;50.322;18.650;2023-09-07T11:56:52;7.50;;;3.10;;
47483;SDS011;54076;50.322;18.650;2023-09-07T12:01:53;7.00;;;3.50;;
47483;SDS011;54076;50.322;18.650;2023-09-07T12:06:54;6.70;;;3.70;;
47483;SDS011;54076;50.322;18.650;2023-09-07T12:11:54;10.00;;;3.60;;
47483;SDS011;54076;50.322;18.650;2023-09-07T12:16:55;9.20;;;3.80;;
47483;SDS011;54076;50.322;18.650;2023-09-07T12:21:56;6.40;;;3.50;;
47483;SDS011;54076;50.322;18.650;2023-09-07T12:26:57;9.90;;;3.80;;
47483;SDS011;54076;50.322;18.650;2023-09-07T12:31:58;10.00;;;3.80;;
47483;SDS011;54076;50.322;18.650;2023-09-07T12:36:59;8.30;;;4.00;;
47483;SDS011;54076;50.322;18.650;2023-09-07T12:42:00;6.70;;;3.40;;
47483;SDS011;54076;50.322;18.650;2023-09-07T12:47:02;6.50;;;3.70;;
47483;SDS011;54076;50.322;18.650;2023-09-07T12:52:03;13.10;;;4.50;;
47483;SDS011;54076;50.322;18.650;2023-09-07T12:57:09;8.20;;;3.90;;
47483;SDS011;54076;50.322;18.650;2023-09-07T13:02:10;9.60;;;4.20;;
47483;SDS011;54076;50.322;18.650;2023-09-07T13:07:11;7.40;;;3.80;;
47483;SDS011;54076;50.322;18.650;2023-09-07T13:12:11;7.80;;;3.90;;
47483;SDS011;54076;50.322;18.650;2023-09-07T13:17:13;7.90;;;3.80;;
47483;SDS011;54076;50.322;18.650;2023-09-07T13:22:17;8.70;;;3.90;;
47483;SDS011;54076;50.322;18.650;2023-09-07T13:27:18;8.30;;;4.00;;
47483;SDS011;54076;50.322;18.650;2023-09-07T13:32:18;10.80;;;3.80;;
47483;SDS011;54076;50.322;18.650;2023-09-07T13:37:19;7.30;;;3.60;;
47483;SDS011;54076;50.322;18.650;2023-09-07T13:42:20;11.70;;;4.70;;
47483;SDS011;54076;50.322;18.650;2023-09-07T13:47:21;8.20;;;4.00;;
47483;SDS011;54076;50.322;18.650;2023-09-07T13:52:22;8.00;;;4.30;;
47483;SDS011;54076;50.322;18.650;2023-09-07T13:57:23;9.70;;;4.10;;
47483;SDS011;54076;50.322;18.650;2023-09-07T14:02:24;8.60;;;4.30;;
47483;SDS011;54076;50.322;18.650;2023-09-07T14:07:25;9.50;;;4.20;;
47483;SDS011;54076;50.322;18.650;2023-09-07T14:12:26;13.60;;;4.30;;
47483;SDS011;54076;50.322;18.650;2023-09-07T14:17:27;7.60;;;4.10;;
47483;SDS011;54076;50.322;18.650;2023-09-07T14:22:28;7.30;;;3.80;;
47483;SDS011;54076;50.322;18.650;2023-09-07T14:27:29;9.60;;;3.90;;
47483;SDS011;54076;50.322;18.650;2023-09-07T14:32:30;7.10;;;3.80;;
47483;SDS011;54076;50.322;18.650;2023-09-07T14:37:31;9.00;;;4.00;;
47483;SDS011;54076;50.322;18.650;2023-09-07T14:42:32;7.60;;;3.80;;
47483;SDS011;54076;50.322;18.650;2023-09-07T14:47:33;7.80;;;4.40;;
47483;SDS011;54076;50.322;18.650;2023-09-07T14:52:34;8.80;;;3.90;;
47483;SDS011;54076;50.322;18.650;2023-09-07T14:57:41;8.60;;;3.90;;
47483;SDS011;54076;50.322;18.650;2023-09-07T15:02:42;8.70;;;3.70;;
47483;SDS011;54076;50.322;18.650;2023-09-07T15:07:42;7.70;;;3.50;;
47483;SDS011;54076;50.322;18.650;2023-09-07T15:12:43;6.80;;;3.20;;
47483;SDS011;54076;50.322;18.650;2023-09-07T15:17:47;9.30;;;3.80;;
47483;SDS011;54076;50.322;18.650;2023-09-07T15:22:48;7.10;;;3.60;;
47483;SDS011;54076;50.322;18.650;2023-09-07T15:27:49;8.30;;;3.70;;
47483;SDS011;54076;50.322;18.650;2023-09-07T15:32:50;8.60;;;3.90;;
47483;SDS011;54076;50.322;18.650;2023-09-07T15:37:51;6.70;;;3.60;;
47483;SDS011;54076;50.322;18.650;2023-09-07T15:42:52;7.10;;;3.30;;
47483;SDS011;54076;50.322;18.650;2023-09-07T15:47:55;7.90;;;3.70;;
47483;SDS011;54076;50.322;18.650;2023-09-07T15:52:56;7.50;;;3.80;;
47483;SDS011;54076;50.322;18.650;2023-09-07T15:57:56;10.00;;;3.70;;
47483;SDS011;54076;50.322;18.650;2023-09-07T16:02:57;6.20;;;3.20;;
47483;SDS011;54076;50.322;18.650;2023-09-07T16:07:58;11.40;;;3.50;;
47483;SDS011;54076;50.322;18.650;2023-09-07T16:12:59;7.60;;;3.60;;
47483;SDS011;54076;50.322;18.650;2023-09-07T16:18:00;9.20;;;4.10;;
47483;SDS011;54076;50.322;18.650;2023-09-07T16:23:01;8.30;;;3.80;;
47483;SDS011;54076;50.322;18.650;2023-09-07T16:28:02;8.70;;;4.60;;
47483;SDS011;54076;50.322;18.650;2023-09-07T16:33:03;6.50;;;3.60;;
47483;SDS011;54076;50.322;18.650;2023-09-07T16:38:04;6.90;;;3.80;;
47483;SDS011;54076;50.322;18.650;2023-09-07T16:43:05;7.90;;;3.90;;
47483;SDS011;54076;50.322;18.650;2023-09-07T16:48:06;7.60;;;3.50;;
47483;SDS011;54076;50.322;18.650;2023-09-07T16:53:07;8.30;;;4.00;;
47483;SDS011;54076;50.322;18.650;2023-09-07T16:58:08;7.30;;;4.10;;
47483;SDS011;54076;50.322;18.650;2023-09-07T17:03:09;8.50;;;4.00;;
47483;SDS011;54076;50.322;18.650;2023-09-07T17:08:10;8.90;;;4.10;;
47483;SDS011;54076;50.322;18.650;2023-09-07T17:13:11;7.80;;;4.10;;
47483;SDS011;54076;50.322;18.650;2023-09-07T17:18:12;9.60;;;4.40;;
47483;SDS011;54076;50.322;18.650;2023-09-07T17:23:13;13.90;;;7.00;;
47483;SDS011;54076;50.322;18.650;2023-09-07T17:28:14;13.50;;;7.40;;
47483;SDS011;54076;50.322;18.650;2023-09-07T17:33:15;7.80;;;4.80;;
47483;SDS011;54076;50.322;18.650;2023-09-07T17:38:16;7.70;;;4.40;;
47483;SDS011;54076;50.322;18.650;2023-09-07T17:43:17;8.00;;;4.30;;
47483;SDS011;54076;50.322;18.650;2023-09-07T17:48:18;8.00;;;4.00;;
47483;SDS011;54076;50.322;18.650;2023-09-07T17:53:19;8.60;;;4.60;;
47483;SDS011;54076;50.322;18.650;2023-09-07T17:58:20;8.60;;;4.80;;
47483;SDS011;54076;50.322;18.650;2023-09-07T18:03:20;8.50;;;4.90;;
47483;SDS011;54076;50.322;18.650;2023-09-07T18:08:22;12.10;;;5.00;;
47483;SDS011;54076;50.322;18.650;2023-09-07T18:13:23;12.70;;;4.70;;
47483;SDS011;54076;50.322;18.650;2023-09-07T18:18:24;15.50;;;6.60;;
47483;SDS011;54076;50.322;18.650;2023-09-07T18:23:25;26.10;;;14.10;;
47483;SDS011;54076;50.322;18.650;2023-09-07T18:28:27;10.80;;;5.30;;
47483;SDS011;54076;50.322;18.650;2023-09-07T18:33:28;12.40;;;5.10;;
47483;SDS011;54076;50.322;18.650;2023-09-07T18:38:30;10.20;;;5.50;;
47483;SDS011;54076;50.322;18.650;2023-09-07T18:43:31;10.20;;;5.00;;
47483;SDS011;54076;50.322;18.650;2023-09-07T18:48:33;10.80;;;5.70;;
47483;SDS011;54076;50.322;18.650;2023-09-07T18:53:35;11.40;;;5.60;;
47483;SDS011;54076;50.322;18.650;2023-09-07T18:58:36;12.40;;;5.60;;
47483;SDS011;54076;50.322;18.650;2023-09-07T19:03:37;12.20;;;5.60;;
47483;SDS011;54076;50.322;18.650;2023-09-07T19:08:38;11.40;;;5.60;;
47483;SDS011;54076;50.322;18.650;2023-09-07T19:13:39;11.70;;;6.20;;
47483;SDS011;54076;50.322;18.650;2023-09-07T19:18:40;12.30;;;6.10;;
47483;SDS011;54076;50.322;18.650;2023-09-07T19:23:42;13.00;;;6.00;;
47483;SDS011;54076;50.322;18.650;2023-09-07T19:28:45;12.90;;;6.20;;
47483;SDS011;54076;50.322;18.650;2023-09-07T19:33:50;15.70;;;6.50;;
47483;SDS011;54076;50.322;18.650;2023-09-07T19:38:53;12.80;;;6.30;;
47483;SDS011;54076;50.322;18.650;2023-09-07T19:43:56;11.90;;;6.80;;
47483;SDS011;54076;50.322;18.650;2023-09-07T19:48:57;14.10;;;6.70;;
47483;SDS011;54076;50.322;18.650;2023-09-07T19:53:58;12.60;;;7.30;;
47483;SDS011;54076;50.322;18.650;2023-09-07T19:58:59;13.50;;;6.60;;
47483;SDS011;54076;50.322;18.650;2023-09-07T20:04:00;12.20;;;6.60;;
47483;SDS011;54076;50.322;18.650;2023-09-07T20:09:12;12.90;;;6.80;;
47483;SDS011;54076;50.322;18.650;2023-09-07T20:14:15;14.20;;;6.90;;
47483;SDS011;54076;50.322;18.650;2023-09-07T20:19:16;13.70;;;7.10;;
47483;SDS011;54076;50.322;18.650;2023-09-07T20:24:17;14.60;;;7.30;;
47483;SDS011;54076;50.322;18.650;2023-09-07T20:29:18;13.20;;;7.30;;
47483;SDS011;54076;50.322;18.650;2023-09-07T20:34:19;14.30;;;7.20;;
47483;SDS011;54076;50.322;18.650;2023-09-07T20:39:20;14.20;;;7.10;;
47483;SDS011;54076;50.322;18.650;2023-09-07T20:44:21;14.00;;;7.10;;
47483;SDS011;54076;50.322;18.650;2023-09-07T20:49:22;22.30;;;7.10;;
47483;SDS011;54076;50.322;18.650;2023-09-07T20:54:23;16.70;;;7.40;;
47483;SDS011;54076;50.322;18.650;2023-09-07T20:59:27;15.20;;;7.40;;
47483;SDS011;54076;50.322;18.650;2023-09-07T21:04:29;17.00;;;7.60;;
47483;SDS011;54076;50.322;18.650;2023-09-07T21:09:31;14.30;;;7.00;;
47483;SDS011;54076;50.322;18.650;2023-09-07T21:14:32;15.20;;;7.80;;
47483;SDS011;54076;50.322;18.650;2023-09-07T21:19:33;15.20;;;7.00;;
47483;SDS011;54076;50.322;18.650;2023-09-07T21:24:34;14.70;;;7.90;;
47483;SDS011;54076;50.322;18.650;2023-09-07T21:29:35;16.50;;;7.90;;
47483;SDS011;54076;50.322;18.650;2023-09-07T21:34:36;17.80;;;8.50;;
47483;SDS011;54076;50.322;18.650;2023-09-07T21:39:37;15.80;;;8.80;;
47483;SDS011;54076;50.322;18.650;2023-09-07T21:44:38;23.70;;;9.30;;
47483;SDS011;54076;50.322;18.650;2023-09-07T21:49:39;18.40;;;9.20;;
47483;SDS011;54076;50.322;18.650;2023-09-07T21:54:40;18.30;;;8.00;;
47483;SDS011;54076;50.322;18.650;2023-09-07T21:59:42;19.60;;;9.40;;
47483;SDS011;54076;50.322;18.650;2023-09-07T22:04:43;19.70;;;9.60;;
47483;SDS011;54076;50.322;18.650;2023-09-07T22:09:44;20.90;;;9.20;;
47483;SDS011;54076;50.322;18.650;2023-09-07T22:14:45;19.20;;;9.60;;
47483;SDS011;54076;50.322;18.650;2023-09-07T22:19:46;18.10;;;9.20;;
47483;SDS011;54076;50.322;18.650;2023-09-07T22:24:47;19.70;;;9.40;;
47483;SDS011;54076;50.322;18.650;2023-09-07T22:29:48;21.00;;;10.40;;
47483;SDS011;54076;50.322;18.650;2023-09-07T22:34:49;21.30;;;10.60;;
47483;SDS011;54076;50.322;18.650;2023-09-07T22:39:50;20.70;;;10.10;;
47483;SDS011;54076;50.322;18.650;2023-09-07T22:44:51;22.40;;;9.80;;
47483;SDS011;54076;50.322;18.650;2023-09-07T22:49:52;19.90;;;9.80;;
47483;SDS011;54076;50.322;18.650;2023-09-07T22:54:53;22.20;;;9.90;;
47483;SDS011;54076;50.322;18.650;2023-09-07T22:59:54;19.10;;;9.00;;
47483;SDS011;54076;50.322;18.650;2023-09-07T23:04:55;18.90;;;8.90;;
47483;SDS011;54076;50.322;18.650;2023-09-07T23:09:56;20.30;;;10.00;;
47483;SDS011;54076;50.322;18.650;2023-09-07T23:14:57;18.00;;;9.00;;
47483;SDS011;54076;50.322;18.650;2023-09-07T23:19:58;19.80;;;9.80;;
47483;SDS011;54076;50.322;18.650;2023-09-07T23:24:59;19.60;;;9.90;;
47483;SDS011;54076;50.322;18.650;2023-09-07T23:30:00;24.00;;;9.50;;
47483;SDS011;54076;50.322;18.650;2023-09-07T23:35:05;19.60;;;10.40;;
47483;SDS011;54076;50.322;18.650;2023-09-07T23:40:09;21.60;;;10.20;;
47483;SDS011;54076;50.322;18.650;2023-09-07T23:45:13;18.50;;;9.30;;
47483;SDS011;54076;50.322;18.650;2023-09-07T23:50:14;23.20;;;10.00;;
47483;SDS011;54076;50.322;18.650;2023-09-07T23:55:15;19.20;;;9.40;;
